createdAt,value
2022-10-05T00:00:56.961Z,98541.44
2022-10-05T00:03:24.740Z,98551.44
2022-10-05T00:05:51.061Z,98550.44
2022-10-05T00:08:18.129Z,98543.22
2022-10-05T00:10:44.650Z,98553.69
2022-10-05T00:13:21.672Z,98549.56
2022-10-05T00:15:48.145Z,98540.09
2022-10-05T00:18:18.465Z,98542.25
2022-10-05T00:20:44.974Z,98545.84
2022-10-05T00:23:16.377Z,98538.25
2022-10-05T00:25:42.700Z,98537.34
2022-10-05T00:28:19.776Z,98533.69
2022-10-05T00:30:46.207Z,98534.44
2022-10-05T00:33:12.534Z,98523.50
2022-10-05T00:35:39.801Z,98533.63
2022-10-05T00:38:06.229Z,98532.53
2022-10-05T00:40:35.903Z,98529.59
2022-10-05T00:43:08.510Z,98532.31
2022-10-05T00:45:38.128Z,98533.31
2022-10-05T00:48:19.920Z,98522.94
2022-10-05T00:50:53.328Z,98523.28
2022-10-05T00:53:22.912Z,98528.59
2022-10-05T00:56:01.263Z,98522.00
2022-10-05T00:58:46.547Z,98509.38
2022-10-05T01:01:13.796Z,98505.59
2022-10-05T01:03:46.159Z,98503.69
2022-10-05T01:06:22.600Z,98507.06
2022-10-05T01:08:52.814Z,98509.72
2022-10-05T01:11:20.563Z,98519.63
2022-10-05T01:14:05.403Z,98513.81
2022-10-05T01:16:41.363Z,98518.22
2022-10-05T01:19:16.216Z,98522.88
2022-10-05T01:21:49.295Z,98526.47
2022-10-05T01:24:18.671Z,98522.22
2022-10-05T01:27:01.353Z,98513.91
2022-10-05T01:29:43.089Z,98511.00
2022-10-05T01:32:09.398Z,98514.19
2022-10-05T01:34:59.284Z,98513.72
2022-10-05T01:37:44.177Z,98517.28
2022-10-05T01:40:24.041Z,98519.34
2022-10-05T01:42:56.959Z,98499.53
2022-10-05T01:45:29.303Z,98507.28
2022-10-05T01:47:55.685Z,98494.91
2022-10-05T01:50:44.760Z,98491.94
2022-10-05T01:53:21.046Z,98486.59
2022-10-05T01:55:47.326Z,98475.63
2022-10-05T01:58:33.921Z,98479.00
2022-10-05T02:01:01.320Z,98481.63
2022-10-05T02:03:29.001Z,98478.53
2022-10-05T02:05:56.673Z,98476.56
2022-10-05T02:08:30.182Z,98470.00
2022-10-05T02:11:05.236Z,98467.47
2022-10-05T02:13:40.684Z,98471.91
2022-10-05T02:16:11.260Z,98459.94
2022-10-05T02:18:38.948Z,98459.88
2022-10-05T02:21:05.279Z,98458.78
2022-10-05T02:23:32.910Z,98467.19
2022-10-05T02:25:59.280Z,98466.50
2022-10-05T02:28:44.987Z,98464.53
2022-10-05T02:31:12.838Z,98465.91
2022-10-05T02:33:39.251Z,98457.66
2022-10-05T02:36:14.810Z,98464.88
2022-10-05T02:38:47.244Z,98457.72
2022-10-05T02:41:13.512Z,98443.56
2022-10-05T02:43:49.100Z,98459.50
2022-10-05T02:46:21.472Z,98444.09
2022-10-05T02:48:50.659Z,98445.50
2022-10-05T02:51:20.029Z,98446.81
2022-10-05T02:53:58.909Z,98438.84
2022-10-05T02:56:28.349Z,98433.63
2022-10-05T02:58:57.425Z,98428.63
2022-10-05T03:01:38.621Z,98437.53
2022-10-05T03:04:14.488Z,98438.84
2022-10-05T03:06:51.780Z,98430.09
2022-10-05T03:09:18.114Z,98425.53
2022-10-05T03:11:51.553Z,98414.59
2022-10-05T03:14:23.080Z,98401.91
2022-10-05T03:16:52.383Z,98406.81
2022-10-05T03:19:18.758Z,98408.84
2022-10-05T03:22:03.929Z,98415.13
2022-10-05T03:24:34.575Z,98415.91
2022-10-05T03:27:01.137Z,98420.38
2022-10-05T03:29:27.430Z,98421.75
2022-10-05T03:31:56.709Z,98415.13
2022-10-05T03:34:35.224Z,98412.81
2022-10-05T03:37:07.226Z,98409.81
2022-10-05T03:39:41.135Z,98410.69
2022-10-05T03:42:16.301Z,98404.16
2022-10-05T03:44:44.519Z,98401.25
2022-10-05T03:47:15.346Z,98391.34
2022-10-05T03:49:54.001Z,98394.34
2022-10-05T03:52:26.164Z,98394.09
2022-10-05T03:54:54.667Z,98396.09
2022-10-05T03:57:21.896Z,98385.13
2022-10-05T03:59:59.790Z,98369.34
2022-10-05T04:02:44.943Z,98380.91
2022-10-05T04:05:12.361Z,98386.50
2022-10-05T04:07:38.655Z,98376.00
2022-10-05T04:10:06.982Z,98383.78
2022-10-05T04:12:34.725Z,98379.44
2022-10-05T04:15:03.668Z,98382.69
2022-10-05T04:17:33.247Z,98375.81
2022-10-05T04:20:04.440Z,98377.81
2022-10-05T04:22:41.040Z,98371.63
2022-10-05T04:25:07.485Z,98373.38
2022-10-05T04:27:34.797Z,98371.91
2022-10-05T04:30:08.062Z,98370.13
2022-10-05T04:32:37.896Z,98366.16
2022-10-05T04:35:23.107Z,98370.88
2022-10-05T04:38:08.223Z,98359.13
2022-10-05T04:40:38.772Z,98357.28
2022-10-05T04:43:05.121Z,98361.16
2022-10-05T04:45:43.338Z,98364.09
2022-10-05T04:48:09.866Z,98355.28
2022-10-05T04:50:36.177Z,98356.28
2022-10-05T04:53:05.558Z,98346.03
2022-10-05T04:55:36.359Z,98345.88
2022-10-05T04:58:09.591Z,98348.84
2022-10-05T05:00:45.276Z,98339.81
2022-10-05T05:03:15.679Z,98344.69
2022-10-05T05:06:12.096Z,98349.00
2022-10-05T05:08:53.087Z,98351.41
2022-10-05T05:11:29.139Z,98345.09
2022-10-05T05:14:01.630Z,98341.31
2022-10-05T05:16:41.296Z,98339.75
2022-10-05T05:19:16.798Z,98348.25
2022-10-05T05:21:46.223Z,98355.91
2022-10-05T05:24:19.900Z,98359.66
2022-10-05T05:26:49.426Z,98351.13
2022-10-05T05:29:28.382Z,98348.88
2022-10-05T05:32:01.048Z,98346.94
2022-10-05T05:34:27.408Z,98359.91
2022-10-05T05:36:56.899Z,98363.94
2022-10-05T05:39:29.663Z,98374.09
2022-10-05T05:41:59.292Z,98374.09
2022-10-05T05:44:28.685Z,98371.72
2022-10-05T05:47:05.303Z,98364.78
2022-10-05T05:49:50.891Z,98376.66
2022-10-05T05:52:22.367Z,98380.38
2022-10-05T05:54:48.649Z,98379.56
2022-10-05T05:57:27.048Z,98381.88
2022-10-05T06:00:12.172Z,98366.53
2022-10-05T06:02:40.638Z,98371.63
2022-10-05T06:05:14.564Z,98371.06
2022-10-05T06:07:40.896Z,98367.25
2022-10-05T06:10:36.793Z,98366.91
2022-10-05T06:13:04.971Z,98369.25
2022-10-05T06:15:52.396Z,98366.47
2022-10-05T06:18:19.639Z,98361.88
2022-10-05T06:20:49.217Z,98370.19
2022-10-05T06:23:17.504Z,98374.00
2022-10-05T06:25:46.337Z,98377.03
2022-10-05T06:28:13.041Z,98379.09
2022-10-05T06:30:51.822Z,98374.13
2022-10-05T06:33:30.135Z,98377.84
2022-10-05T06:35:59.607Z,98382.34
2022-10-05T06:38:34.728Z,98382.22
2022-10-05T06:41:21.080Z,98373.44
2022-10-05T06:43:47.426Z,98375.75
2022-10-05T06:46:32.656Z,98379.06
2022-10-05T06:48:59.343Z,98374.44
2022-10-05T06:51:37.914Z,98370.28
2022-10-05T06:54:23.250Z,98366.16
2022-10-05T06:56:56.341Z,98368.44
2022-10-05T06:59:28.583Z,98364.28
2022-10-05T07:01:58.013Z,98365.38
2022-10-05T07:04:34.601Z,98365.31
2022-10-05T07:07:04.201Z,98355.50
2022-10-05T07:09:30.481Z,98363.94
2022-10-05T07:12:05.376Z,98363.34
2022-10-05T07:14:32.177Z,98365.13
2022-10-05T07:17:01.480Z,98360.59
2022-10-05T07:19:33.332Z,98350.13
2022-10-05T07:22:04.831Z,98356.59
2022-10-05T07:24:59.065Z,98351.56
2022-10-05T07:27:25.807Z,98348.59
2022-10-05T07:29:59.940Z,98342.91
2022-10-05T07:32:33.959Z,98340.47
2022-10-05T07:35:38.186Z,98348.63
2022-10-05T07:38:08.017Z,98347.75
2022-10-05T07:40:40.492Z,98343.53
2022-10-05T07:43:14.388Z,98347.75
2022-10-05T07:45:48.053Z,98347.22
2022-10-05T07:48:26.661Z,98341.03
2022-10-05T07:51:11.825Z,98349.63
2022-10-05T07:53:39.466Z,98350.91
2022-10-05T07:56:25.920Z,98353.56
2022-10-05T07:58:54.603Z,98353.75
2022-10-05T08:01:24.066Z,98351.22
2022-10-05T08:03:52.294Z,98351.44
2022-10-05T08:06:30.165Z,98363.25
2022-10-05T08:08:57.433Z,98355.56
2022-10-05T08:11:28.002Z,98354.88
2022-10-05T08:14:02.269Z,98356.75
2022-10-05T08:16:30.796Z,98355.28
2022-10-05T08:19:06.738Z,98359.22
2022-10-05T08:21:34.103Z,98360.44
2022-10-05T08:24:26.862Z,98354.03
2022-10-05T08:27:06.728Z,98353.41
2022-10-05T08:29:35.302Z,98363.50
2022-10-05T08:32:02.567Z,98368.25
2022-10-05T08:34:34.987Z,98366.19
2022-10-05T08:37:14.611Z,98371.13
2022-10-05T08:39:42.532Z,98365.19
2022-10-05T08:42:18.276Z,98372.25
2022-10-05T08:44:49.141Z,98375.66
2022-10-05T08:47:27.990Z,98376.38
2022-10-05T08:49:57.305Z,98379.28
2022-10-05T08:52:38.811Z,98375.97
2022-10-05T08:55:14.233Z,98370.09
2022-10-05T08:57:47.278Z,98384.09
2022-10-05T09:00:19.912Z,98378.75
2022-10-05T09:03:01.699Z,98380.28
2022-10-05T09:05:46.940Z,98379.56
2022-10-05T09:08:27.596Z,98383.53
2022-10-05T09:11:03.816Z,98380.16
2022-10-05T09:13:56.594Z,98379.81
2022-10-05T09:16:26.585Z,98383.78
2022-10-05T09:19:11.546Z,98384.94
2022-10-05T09:21:37.845Z,98377.47
2022-10-05T09:24:10.376Z,98390.69
2022-10-05T09:26:39.659Z,98380.53
2022-10-05T09:29:21.423Z,98384.28
2022-10-05T09:32:10.752Z,98382.72
2022-10-05T09:34:49.191Z,98384.78
2022-10-05T09:37:20.121Z,98383.75
2022-10-05T09:40:05.313Z,98382.06
2022-10-05T09:42:34.623Z,98373.72
2022-10-05T09:45:01.589Z,98370.25
2022-10-05T09:47:45.118Z,98365.16
2022-10-05T09:50:30.292Z,98364.13
2022-10-05T09:52:59.349Z,98356.00
2022-10-05T09:55:25.642Z,98368.47
2022-10-05T09:57:54.972Z,98347.50
2022-10-05T10:00:23.178Z,98347.06
2022-10-05T10:03:05.344Z,98355.84
2022-10-05T10:05:39.198Z,98355.63
2022-10-05T10:08:24.455Z,98354.94
2022-10-05T10:11:00.369Z,98359.75
2022-10-05T10:13:45.705Z,98356.56
2022-10-05T10:16:30.608Z,98358.13
2022-10-05T10:19:06.059Z,98364.94
2022-10-05T10:21:53.130Z,98366.91
2022-10-05T10:24:28.791Z,98354.06
2022-10-05T10:26:58.126Z,98372.50
2022-10-05T10:32:06.531Z,98356.41
2022-10-05T10:34:41.514Z,98365.31
2022-10-05T10:37:28.065Z,98348.56
2022-10-05T10:39:57.488Z,98363.78
2022-10-05T10:42:36.048Z,98363.09
2022-10-05T10:45:12.579Z,98351.16
2022-10-05T10:48:00.195Z,98358.41
2022-10-05T10:50:45.342Z,98356.81
2022-10-05T10:53:11.904Z,98353.38
2022-10-05T10:55:57.115Z,98353.00
2022-10-05T10:58:34.901Z,98345.66
2022-10-05T11:01:13.303Z,98342.72
2022-10-05T11:03:45.804Z,98348.03
2022-10-05T11:06:33.096Z,98345.44
2022-10-05T11:09:05.524Z,98335.94
2022-10-05T11:11:31.818Z,98335.19
2022-10-05T11:14:08.767Z,98334.75
2022-10-05T11:16:38.303Z,98327.28
2022-10-05T11:19:04.637Z,98330.34
2022-10-05T11:21:34.177Z,98326.09
2022-10-05T11:24:06.613Z,98325.00
2022-10-05T11:26:35.972Z,98318.72
2022-10-05T11:29:21.143Z,98315.09
2022-10-05T11:31:47.946Z,98322.25
2022-10-05T11:34:17.586Z,98314.53
2022-10-05T11:36:51.909Z,98318.59
2022-10-05T11:39:33.562Z,98314.63
2022-10-05T11:42:14.032Z,98311.09
2022-10-05T11:44:56.950Z,98309.41
2022-10-05T11:47:24.617Z,98308.81
2022-10-05T11:49:51.038Z,98298.03
2022-10-05T11:52:33.520Z,98301.34
2022-10-05T11:55:15.909Z,98296.34
2022-10-05T11:57:49.253Z,98290.47
2022-10-05T12:00:22.626Z,98292.09
2022-10-05T12:03:09.625Z,98286.06
2022-10-05T12:05:38.769Z,98281.34
2022-10-05T12:08:23.960Z,98280.13
2022-10-05T12:10:59.433Z,98286.16
2022-10-05T12:13:30.179Z,98276.88
2022-10-05T12:16:02.525Z,98263.75
2022-10-05T12:18:32.566Z,98257.19
2022-10-05T12:21:05.593Z,98254.00
2022-10-05T12:23:37.172Z,98248.75
2022-10-05T12:26:04.129Z,98256.03
2022-10-05T12:28:36.212Z,98255.66
2022-10-05T12:31:02.638Z,98248.47
2022-10-05T12:33:32.076Z,98248.97
2022-10-05T12:36:01.430Z,98243.38
2022-10-05T12:38:46.995Z,98250.19
2022-10-05T12:41:19.558Z,98236.59
2022-10-05T12:44:04.611Z,98236.13
2022-10-05T12:46:35.850Z,98233.03
2022-10-05T12:49:08.373Z,98225.41
2022-10-05T12:51:36.836Z,98219.00
2022-10-05T12:54:06.348Z,98217.78
2022-10-05T12:56:43.284Z,98207.38
2022-10-05T12:59:14.312Z,98208.97
2022-10-05T13:01:47.299Z,98205.31
2022-10-05T13:04:17.468Z,98208.41
2022-10-05T13:06:50.060Z,98196.91
2022-10-05T13:09:18.732Z,98201.72
2022-10-05T13:11:49.455Z,98205.22
2022-10-05T13:14:25.079Z,98198.00
2022-10-05T13:16:55.269Z,98191.47
2022-10-05T13:19:24.795Z,98194.25
2022-10-05T13:21:55.218Z,98191.88
2022-10-05T13:24:40.390Z,98192.59
2022-10-05T13:27:15.861Z,98179.75
2022-10-05T13:29:42.807Z,98176.16
2022-10-05T13:32:29.466Z,98177.34
2022-10-05T13:35:15.344Z,98163.31
2022-10-05T13:37:42.834Z,98169.19
2022-10-05T13:40:28.014Z,98165.31
2022-10-05T13:43:06.661Z,98164.41
2022-10-05T13:45:39.237Z,98162.72
2022-10-05T13:48:14.678Z,98159.72
2022-10-05T13:50:44.162Z,98154.03
2022-10-05T13:53:24.543Z,98143.56
2022-10-05T13:56:01.193Z,98138.47
2022-10-05T13:58:47.692Z,98140.69
2022-10-05T14:01:17.743Z,98136.81
2022-10-05T14:04:03.120Z,98130.34
2022-10-05T14:06:30.636Z,98129.72
2022-10-05T14:09:03.086Z,98129.88
2022-10-05T14:11:33.487Z,98128.47
2022-10-05T14:14:02.874Z,98126.81
2022-10-05T14:16:30.542Z,98119.53
2022-10-05T14:18:56.904Z,98107.13
2022-10-05T14:21:26.952Z,98100.91
2022-10-05T14:23:53.336Z,98101.81
2022-10-05T14:26:25.698Z,98108.84
2022-10-05T14:28:58.903Z,98101.78
2022-10-05T14:31:37.075Z,98088.22
2022-10-05T14:34:26.864Z,98085.50
2022-10-05T14:37:02.992Z,98102.78
2022-10-05T14:39:30.507Z,98079.56
2022-10-05T14:41:56.846Z,98082.78
2022-10-05T14:44:27.296Z,98086.38
2022-10-05T14:46:54.620Z,98081.59
2022-10-05T14:49:24.177Z,98077.97
2022-10-05T14:51:50.531Z,98058.75
2022-10-05T14:54:22.950Z,98064.78
2022-10-05T14:56:58.994Z,98057.56
2022-10-05T14:59:29.509Z,98055.16
2022-10-05T15:02:20.025Z,98062.38
2022-10-05T15:05:07.085Z,98058.78
2022-10-05T15:07:38.834Z,98056.38
2022-10-05T15:10:28.135Z,98069.97
2022-10-05T15:12:55.171Z,98058.34
2022-10-05T15:15:25.617Z,98059.56
2022-10-05T15:17:54.385Z,98059.97
2022-10-05T15:20:24.514Z,98054.38
2022-10-05T15:22:57.566Z,98064.78
2022-10-05T15:25:27.102Z,98057.56
2022-10-05T15:28:00.282Z,98051.16
2022-10-05T15:30:26.618Z,98043.94
2022-10-05T15:32:56.043Z,98051.16
2022-10-05T15:35:28.471Z,98045.56
2022-10-05T15:37:55.163Z,98039.16
2022-10-05T15:40:24.513Z,98045.97
2022-10-05T15:42:52.654Z,98047.16
2022-10-05T15:45:23.468Z,98044.75
2022-10-05T15:47:53.406Z,98037.16
2022-10-05T15:50:21.803Z,98045.16
2022-10-05T15:53:17.601Z,98044.75
2022-10-05T15:55:56.573Z,98045.56
2022-10-05T15:58:39.525Z,98049.53
2022-10-05T16:01:21.119Z,98048.75
2022-10-05T16:03:53.711Z,98057.59
2022-10-05T16:06:45.285Z,98055.56
2022-10-05T16:09:28.052Z,98067.19
2022-10-05T16:12:13.480Z,98055.03
2022-10-05T16:14:58.262Z,98069.91
2022-10-05T16:17:24.584Z,98062.75
2022-10-05T16:20:03.313Z,98062.38
2022-10-05T16:22:39.918Z,98065.16
2022-10-05T16:25:24.611Z,98071.19
2022-10-05T16:27:58.721Z,98068.78
2022-10-05T16:30:28.514Z,98075.97
2022-10-05T16:32:57.865Z,98069.59
2022-10-05T16:35:29.065Z,98075.56
2022-10-05T16:38:09.744Z,98082.00
2022-10-05T16:41:01.977Z,98082.41
2022-10-05T16:43:34.801Z,98085.59
2022-10-05T16:46:19.120Z,98092.81
2022-10-05T16:48:48.194Z,98099.19
2022-10-05T16:51:19.353Z,98102.81
2022-10-05T16:53:49.337Z,98109.97
2022-10-05T16:56:16.868Z,98111.16
2022-10-05T16:58:46.175Z,98125.19
2022-10-05T17:01:24.249Z,98133.59
2022-10-05T17:03:54.766Z,98137.47
2022-10-05T17:06:34.592Z,98141.09
2022-10-05T17:09:10.038Z,98145.69
2022-10-05T17:11:39.436Z,98164.81
2022-10-05T17:14:18.164Z,98161.91
2022-10-05T17:16:47.940Z,98175.34
2022-10-05T17:19:20.335Z,98176.44
2022-10-05T17:22:02.230Z,98182.97
2022-10-05T17:24:30.314Z,98181.31
2022-10-05T17:27:15.956Z,98186.84
2022-10-05T17:29:42.259Z,98191.38
2022-10-05T17:32:15.682Z,98192.97
2022-10-05T17:35:02.078Z,98194.66
2022-10-05T17:37:31.960Z,98200.50
2022-10-05T17:39:58.967Z,98203.69
2022-10-05T17:42:31.269Z,98213.41
2022-10-05T17:44:57.835Z,98218.81
2022-10-05T17:47:47.354Z,98220.53
2022-10-05T17:50:32.570Z,98209.13
2022-10-05T17:53:35.121Z,98214.59
2022-10-05T17:56:02.504Z,98210.81
2022-10-05T17:58:32.000Z,98215.16
2022-10-05T18:00:58.389Z,98222.56
2022-10-05T18:03:33.991Z,98223.22
2022-10-05T18:06:28.320Z,98215.22
2022-10-05T18:09:13.585Z,98217.91
2022-10-05T18:11:43.542Z,98216.03
2022-10-05T18:14:19.814Z,98219.34
2022-10-05T18:16:59.369Z,98209.72
2022-10-05T18:19:25.738Z,98222.13
2022-10-05T18:21:59.382Z,98217.34
2022-10-05T18:24:33.367Z,98223.00
2022-10-05T18:27:18.494Z,98218.50
2022-10-05T18:30:05.244Z,98220.59
2022-10-05T18:32:38.069Z,98234.25
2022-10-05T18:35:11.315Z,98229.19
2022-10-05T18:37:56.708Z,98231.69
2022-10-05T18:40:26.481Z,98248.66
2022-10-05T18:42:56.041Z,98238.25
2022-10-05T18:45:23.973Z,98235.72
2022-10-05T18:47:56.435Z,98246.13
2022-10-05T18:50:22.790Z,98250.06
2022-10-05T18:53:00.751Z,98254.41
2022-10-05T18:55:36.095Z,98259.72
2022-10-05T18:58:18.181Z,98243.84
2022-10-05T19:00:51.338Z,98252.47
2022-10-05T19:03:17.695Z,98259.75
2022-10-05T19:05:48.700Z,98259.94
2022-10-05T19:08:15.489Z,98267.81
2022-10-05T19:10:45.600Z,98264.38
2022-10-05T19:13:16.026Z,98282.25
2022-10-05T19:15:45.149Z,98291.13
2022-10-05T19:18:21.513Z,98287.94
2022-10-05T19:21:06.883Z,98290.63
2022-10-05T19:23:47.646Z,98280.97
2022-10-05T19:26:15.367Z,98285.09
2022-10-05T19:28:58.306Z,98289.50
2022-10-05T19:31:27.869Z,98293.97
2022-10-05T19:34:16.346Z,98306.81
2022-10-05T19:36:52.802Z,98302.00
2022-10-05T19:39:38.080Z,98310.81
2022-10-05T19:42:10.747Z,98314.63
2022-10-05T19:44:38.373Z,98306.25
2022-10-05T19:47:25.133Z,98309.47
2022-10-05T19:49:51.415Z,98315.06
2022-10-05T19:52:36.659Z,98327.91
2022-10-05T19:55:17.127Z,98322.28
2022-10-05T19:57:47.607Z,98319.91
2022-10-05T20:00:24.597Z,98315.88
2022-10-05T20:02:52.224Z,98319.47
2022-10-05T20:05:19.028Z,98324.28
2022-10-05T20:07:45.402Z,98322.69
2022-10-05T20:10:26.668Z,98303.75
2022-10-05T20:12:55.757Z,98317.00
2022-10-05T20:15:45.102Z,98317.03
2022-10-05T20:18:49.147Z,98313.81
2022-10-05T20:21:34.118Z,98325.47
2022-10-05T20:24:07.608Z,98327.31
2022-10-05T20:26:56.889Z,98342.22
2022-10-05T20:29:23.238Z,98344.59
2022-10-05T20:31:49.602Z,98344.63
2022-10-05T20:34:17.905Z,98347.34
2022-10-05T20:36:45.920Z,98343.38
2022-10-05T20:39:15.504Z,98358.56
2022-10-05T20:41:42.640Z,98362.53
2022-10-05T20:44:09.160Z,98354.13
2022-10-05T20:46:35.582Z,98358.53
2022-10-05T20:49:02.630Z,98368.16
2022-10-05T20:51:29.126Z,98360.25
2022-10-05T20:53:56.030Z,98363.72
2022-10-05T20:56:24.355Z,98364.66
2022-10-05T20:58:50.687Z,98361.06
2022-10-05T21:01:19.755Z,98363.06
2022-10-05T21:03:46.539Z,98363.88
2022-10-05T21:06:12.924Z,98364.19
2022-10-05T21:08:39.264Z,98362.16
2022-10-05T21:11:09.016Z,98355.31
2022-10-05T21:13:35.878Z,98358.56
2022-10-05T21:16:02.386Z,98364.94
2022-10-05T21:18:29.147Z,98357.75
2022-10-05T21:20:59.861Z,98361.19
2022-10-05T21:23:29.439Z,98362.84
2022-10-05T21:25:55.797Z,98367.34
2022-10-05T21:28:22.412Z,98355.69
2022-10-05T21:30:48.808Z,98349.72
2022-10-05T21:33:15.199Z,98349.31
2022-10-05T21:35:41.571Z,98347.69
2022-10-05T21:38:07.890Z,98348.88
2022-10-05T21:40:34.231Z,98350.84
2022-10-05T21:43:00.596Z,98345.25
2022-10-05T21:45:28.001Z,98351.19
2022-10-05T21:47:54.356Z,98343.09
2022-10-05T21:50:20.658Z,98345.06
2022-10-05T21:52:47.231Z,98348.69
2022-10-05T21:55:13.556Z,98349.06
2022-10-05T21:57:41.191Z,98357.50
2022-10-05T22:00:07.943Z,98351.47
2022-10-05T22:02:34.403Z,98357.03
2022-10-05T22:05:00.727Z,98351.13
2022-10-05T22:07:29.222Z,98351.13
2022-10-05T22:09:55.532Z,98354.31
2022-10-05T22:12:21.900Z,98370.78
2022-10-05T22:14:48.203Z,98354.00
2022-10-05T22:17:14.824Z,98362.81
2022-10-05T22:19:41.192Z,98359.63
2022-10-05T22:22:11.694Z,98358.84
2022-10-05T22:24:38.271Z,98353.94
2022-10-05T22:27:04.593Z,98366.66
2022-10-05T22:29:30.920Z,98356.56
2022-10-05T22:31:57.555Z,98357.06
2022-10-05T22:34:23.896Z,98349.91
2022-10-05T22:36:50.312Z,98362.28
2022-10-05T22:39:16.744Z,98366.69
2022-10-05T22:41:43.086Z,98359.09
2022-10-05T22:44:09.550Z,98379.13
2022-10-05T22:46:35.892Z,98362.38
2022-10-05T22:49:02.332Z,98373.66
2022-10-05T22:51:28.691Z,98379.28
2022-10-05T22:53:55.043Z,98376.03
2022-10-05T22:56:21.366Z,98380.44
2022-10-05T22:58:47.764Z,98385.28
2022-10-05T23:01:14.700Z,98399.25
2022-10-05T23:03:41.153Z,98398.44
2022-10-05T23:06:08.983Z,98408.88
2022-10-05T23:08:35.429Z,98402.47
2022-10-05T23:11:04.947Z,98398.44
2022-10-05T23:13:31.455Z,98412.50
2022-10-05T23:15:57.784Z,98406.53
2022-10-05T23:18:24.170Z,98418.13
2022-10-05T23:20:54.580Z,98422.19
2022-10-05T23:23:21.174Z,98422.13
2022-10-05T23:25:47.493Z,98439.72
2022-10-05T23:28:13.880Z,98444.16
2022-10-05T23:30:40.289Z,98453.72
2022-10-05T23:33:06.670Z,98456.81
2022-10-05T23:35:33.019Z,98467.13
2022-10-05T23:37:59.790Z,98466.16
2022-10-05T23:40:26.366Z,98468.38
2022-10-05T23:42:52.697Z,98481.16
2022-10-05T23:45:19.072Z,98491.66
2022-10-05T23:47:45.709Z,98485.22
2022-10-05T23:50:12.022Z,98504.34
2022-10-05T23:52:38.453Z,98498.63
2022-10-05T23:55:05.067Z,98490.88
2022-10-05T23:57:31.403Z,98506.09
2022-10-05T23:59:58.083Z,98507.84
